Time,TemperatureF,DewpointF,PressureIn,WindDirection,WindDirectionDegrees,WindSpeedMPH,WindSpeedGustMPH,Humidity,HourlyPrecipIn,Conditions,Clouds,dailyrainin,SoftwareType,DateUTC
2013-12-22 00:00:00,21.3,19.1,29.95,NE,36,7.0,7.0,91,0.00,,,0.00,Wunderground v.1.13,2013-12-22 05:00:00,
2013-12-22 00:30:00,21.1,18.9,29.93,NE,46,7.0,9.0,91,0.00,,,0.00,Wunderground v.1.13,2013-12-22 05:30:00,
2013-12-22 01:00:00,20.5,18.0,29.91,NE,44,6.0,8.0,90,0.00,,,0.00,Wunderground v.1.13,2013-12-22 06:00:00,
2013-12-22 01:30:00,20.5,18.0,29.90,NNE,33,7.0,8.0,90,0.00,,,0.00,Wunderground v.1.13,2013-12-22 06:30:00,
2013-12-22 02:00:00,20.3,17.8,29.89,NNE,29,6.0,6.0,90,0.00,,,0.00,Wunderground v.1.13,2013-12-22 07:00:00,
2013-12-22 02:30:00,20.2,17.7,29.88,NNE,26,7.0,9.0,90,0.00,,,0.00,Wunderground v.1.13,2013-12-22 07:30:00,
2013-12-22 03:00:00,20.0,17.5,29.85,NNE,30,6.0,6.0,90,0.00,,,0.00,Wunderground v.1.13,2013-12-22 08:00:00,
2013-12-22 03:30:00,19.7,17.2,29.86,NNE,13,6.0,9.0,90,0.00,,,0.00,Wunderground v.1.13,2013-12-22 08:30:00,
2013-12-22 04:00:00,19.2,16.7,29.82,NE,38,8.0,8.0,90,0.00,,,0.00,Wunderground v.1.13,2013-12-22 09:00:00,
2013-12-22 04:30:00,18.9,16.5,29.82,NNE,13,8.0,11.0,90,0.00,,,0.00,Wunderground v.1.13,2013-12-22 09:30:00,
2013-12-22 05:00:00,19.2,17.0,29.79,NE,40,9.0,9.0,91,0.00,,,0.00,Wunderground v.1.13,2013-12-22 10:00:00,
2013-12-22 05:30:00,19.5,17.3,29.75,NNE,30,8.0,10.0,91,0.00,,,0.00,Wunderground v.1.13,2013-12-22 10:30:00,
2013-12-22 06:00:00,19.7,17.5,29.76,NNE,28,7.0,10.0,91,0.00,,,0.00,Wunderground v.1.13,2013-12-22 11:00:00,
2013-12-22 06:30:00,19.7,17.5,29.74,NNE,28,7.0,7.0,91,0.00,,,0.00,Wunderground v.1.13,2013-12-22 11:30:00,
2013-12-22 07:00:00,20.3,18.3,29.73,ESE,119,6.0,6.0,92,0.00,,,0.00,Wunderground v.1.13,2013-12-22 12:00:00,
2013-12-22 07:30:00,20.6,18.6,29.77,North,350,5.0,5.0,92,0.00,,,0.00,Wunderground v.1.13,2013-12-22 12:30:00,
2013-12-22 08:00:00,20.0,17.8,29.78,NE,36,8.0,8.0,91,0.00,,,0.00,Wunderground v.1.13,2013-12-22 13:00:00,
2013-12-22 08:30:00,20.0,17.8,29.75,NNE,22,9.0,12.0,91,0.00,,,0.00,Wunderground v.1.13,2013-12-22 13:30:00,
2013-12-22 09:00:00,20.0,17.5,29.80,NNE,31,9.0,9.0,90,0.00,,,0.00,Wunderground v.1.13,2013-12-22 14:00:00,
2013-12-22 09:30:00,20.2,17.7,29.81,NNE,33,9.0,9.0,90,0.00,,,0.00,Wunderground v.1.13,2013-12-22 14:30:00,
2013-12-22 10:00:00,20.0,17.5,29.80,NNE,22,7.0,7.0,90,0.00,,,0.00,Wunderground v.1.13,2013-12-22 15:00:00,
2013-12-22 10:30:00,20.2,17.7,29.77,NNE,32,5.0,11.0,90,0.00,,,0.00,Wunderground v.1.13,2013-12-22 15:30:00,
2013-12-22 11:00:00,20.0,17.5,29.73,NNE,28,5.0,5.0,90,0.00,,,0.00,Wunderground v.1.13,2013-12-22 16:00:00,
2013-12-22 11:30:00,19.9,17.4,29.75,NE,49,5.0,7.0,90,0.00,,,0.00,Wunderground v.1.13,2013-12-22 16:30:00,
2013-12-22 12:00:00,20.2,17.7,29.72,NE,40,4.0,5.0,90,0.00,,,0.00,Wunderground v.1.13,2013-12-22 17:00:00,
2013-12-22 12:30:00,20.2,17.7,29.69,NE,39,5.0,5.0,90,0.00,,,0.00,Wunderground v.1.13,2013-12-22 17:30:00,
2013-12-22 13:00:00,19.7,17.2,29.68,NNE,24,5.0,5.0,90,0.00,,,0.00,Wunderground v.1.13,2013-12-22 18:00:00,
2013-12-22 13:30:00,20.0,17.8,29.69,NNE,32,5.0,5.0,91,0.00,,,0.00,Wunderground v.1.13,2013-12-22 18:30:00,
2013-12-22 14:00:00,20.5,18.3,29.69,ENE,65,5.0,5.0,91,0.00,,,0.00,Wunderground v.1.13,2013-12-22 19:00:00,
2013-12-22 14:30:00,20.3,18.1,29.69,North,5,5.0,5.0,91,0.00,,,0.00,Wunderground v.1.13,2013-12-22 19:30:00,
2013-12-22 15:00:00,20.0,17.8,29.72,NNE,29,5.0,5.0,91,0.00,,,0.00,Wunderground v.1.13,2013-12-22 20:00:00,
2013-12-22 15:30:00,20.5,18.5,29.72,NE,34,3.0,3.0,92,0.00,,,0.00,Wunderground v.1.13,2013-12-22 20:30:00,
2013-12-22 16:00:00,20.5,18.3,29.74,NNE,28,2.0,5.0,91,0.00,,,0.00,Wunderground v.1.13,2013-12-22 21:00:00,
2013-12-22 16:30:00,20.8,18.8,29.75,NE,34,2.0,5.0,92,0.00,,,0.00,Wunderground v.1.13,2013-12-22 21:30:00,
2013-12-22 17:00:00,20.6,18.4,29.76,NE,44,3.0,5.0,91,0.00,,,0.00,Wunderground v.1.13,2013-12-22 22:00:00,
2013-12-22 17:30:00,20.8,18.6,29.79,NE,42,1.0,5.0,91,0.00,,,0.00,Wunderground v.1.13,2013-12-22 22:30:00,
2013-12-22 18:00:00,20.5,18.3,29.81,NE,42,1.0,5.0,91,0.00,,,0.00,Wunderground v.1.13,2013-12-22 23:00:00,
2013-12-22 18:30:00,20.3,18.1,29.81,NNE,12,2.0,2.0,91,0.00,,,0.00,Wunderground v.1.13,2013-12-22 23:30:00,
2013-12-22 19:00:00,20.2,18.0,29.84,NNE,26,2.0,2.0,91,0.00,,,0.00,Wunderground v.1.13,2013-12-23 00:00:00,
2013-12-22 19:30:00,20.0,17.5,29.85,East,90,0.0,5.0,90,0.00,,,0.00,Wunderground v.1.13,2013-12-23 00:30:00,
2013-12-22 20:00:00,19.9,17.7,29.85,East,90,1.0,1.0,91,0.00,,,0.00,Wunderground v.1.13,2013-12-23 01:00:00,
2013-12-22 20:30:00,19.9,17.7,29.87,East,90,0.0,5.0,91,0.00,,,0.00,Wunderground v.1.13,2013-12-23 01:30:00,
2013-12-22 21:00:00,19.9,17.7,29.87,East,90,1.0,1.0,91,0.00,,,0.00,Wunderground v.1.13,2013-12-23 02:00:00,
2013-12-22 21:30:00,20.0,17.8,29.88,East,90,0.0,5.0,91,0.00,,,0.00,Wunderground v.1.13,2013-12-23 02:30:00,
2013-12-22 22:00:00,20.0,18.1,29.91,East,90,0.0,5.0,92,0.00,,,0.00,Wunderground v.1.13,2013-12-23 03:00:00,
2013-12-22 22:30:00,20.2,18.2,29.90,East,90,0.0,5.0,92,0.00,,,0.00,Wunderground v.1.13,2013-12-23 03:30:00,
2013-12-22 23:00:00,20.2,18.2,29.92,East,90,0.0,5.0,92,0.00,,,0.00,Wunderground v.1.13,2013-12-23 04:00:00,
2013-12-22 23:30:00,20.0,18.1,29.93,East,90,0.0,5.0,92,0.00,,,0.00,Wunderground v.1.13,2013-12-23 04:30:00,